sensor_id;sensor_type;location;lat;lon;timestamp;P1;durP1;ratioP1;P2;durP2;ratioP2
32186;SDS011;18686;53.084;8.872;2022-10-16T00:01:12;11.80;;;5.40;;
32186;SDS011;18686;53.084;8.872;2022-10-16T00:03:42;14.60;;;5.40;;
32186;SDS011;18686;53.084;8.872;2022-10-16T00:06:12;11.90;;;5.35;;
32186;SDS011;18686;53.084;8.872;2022-10-16T00:08:42;10.63;;;4.78;;
32186;SDS011;18686;53.084;8.872;2022-10-16T00:11:12;10.73;;;4.90;;
32186;SDS011;18686;53.084;8.872;2022-10-16T00:13:43;14.55;;;4.85;;
32186;SDS011;18686;53.084;8.872;2022-10-16T00:16:15;13.50;;;4.55;;
32186;SDS011;18686;53.084;8.872;2022-10-16T00:18:44;9.90;;;4.30;;
32186;SDS011;18686;53.084;8.872;2022-10-16T00:21:13;14.52;;;4.60;;
32186;SDS011;18686;53.084;8.872;2022-10-16T00:23:42;14.20;;;4.63;;
32186;SDS011;18686;53.084;8.872;2022-10-16T00:26:12;11.50;;;4.53;;
32186;SDS011;18686;53.084;8.872;2022-10-16T00:28:44;9.00;;;4.50;;
32186;SDS011;18686;53.084;8.872;2022-10-16T00:31:17;15.90;;;4.45;;
32186;SDS011;18686;53.084;8.872;2022-10-16T00:33:46;12.85;;;4.75;;
32186;SDS011;18686;53.084;8.872;2022-10-16T00:36:16;9.57;;;3.97;;
32186;SDS011;18686;53.084;8.872;2022-10-16T00:38:46;9.73;;;4.55;;
32186;SDS011;18686;53.084;8.872;2022-10-16T00:41:20;9.13;;;3.90;;
32186;SDS011;18686;53.084;8.872;2022-10-16T00:43:50;12.48;;;4.35;;
32186;SDS011;18686;53.084;8.872;2022-10-16T00:46:22;10.15;;;4.40;;
32186;SDS011;18686;53.084;8.872;2022-10-16T00:48:54;10.25;;;4.35;;
32186;SDS011;18686;53.084;8.872;2022-10-16T00:51:29;13.13;;;5.10;;
32186;SDS011;18686;53.084;8.872;2022-10-16T00:54:00;8.23;;;4.15;;
32186;SDS011;18686;53.084;8.872;2022-10-16T00:56:31;16.85;;;4.07;;
32186;SDS011;18686;53.084;8.872;2022-10-16T00:59:01;8.65;;;3.80;;
32186;SDS011;18686;53.084;8.872;2022-10-16T01:01:33;9.75;;;3.60;;
32186;SDS011;18686;53.084;8.872;2022-10-16T01:04:02;6.75;;;3.80;;
32186;SDS011;18686;53.084;8.872;2022-10-16T01:06:32;14.45;;;4.43;;
32186;SDS011;18686;53.084;8.872;2022-10-16T01:09:11;8.80;;;3.75;;
32186;SDS011;18686;53.084;8.872;2022-10-16T01:11:44;10.57;;;4.13;;
32186;SDS011;18686;53.084;8.872;2022-10-16T01:14:22;8.10;;;3.63;;
32186;SDS011;18686;53.084;8.872;2022-10-16T01:16:57;9.30;;;3.55;;
32186;SDS011;18686;53.084;8.872;2022-10-16T01:19:35;8.07;;;3.78;;
32186;SDS011;18686;53.084;8.872;2022-10-16T01:22:11;10.05;;;3.90;;
32186;SDS011;18686;53.084;8.872;2022-10-16T01:24:41;14.38;;;4.45;;
32186;SDS011;18686;53.084;8.872;2022-10-16T01:27:19;6.80;;;3.65;;
32186;SDS011;18686;53.084;8.872;2022-10-16T01:29:51;11.50;;;3.78;;
32186;SDS011;18686;53.084;8.872;2022-10-16T01:32:23;11.68;;;4.20;;
32186;SDS011;18686;53.084;8.872;2022-10-16T01:34:58;13.63;;;4.10;;
32186;SDS011;18686;53.084;8.872;2022-10-16T01:37:31;10.23;;;4.60;;
32186;SDS011;18686;53.084;8.872;2022-10-16T01:40:05;15.80;;;4.45;;
32186;SDS011;18686;53.084;8.872;2022-10-16T01:42:38;8.43;;;3.78;;
32186;SDS011;18686;53.084;8.872;2022-10-16T01:45:11;13.80;;;4.67;;
32186;SDS011;18686;53.084;8.872;2022-10-16T01:47:41;10.93;;;4.78;;
32186;SDS011;18686;53.084;8.872;2022-10-16T01:50:10;13.90;;;4.50;;
32186;SDS011;18686;53.084;8.872;2022-10-16T01:52:41;9.48;;;4.63;;
32186;SDS011;18686;53.084;8.872;2022-10-16T01:55:13;8.77;;;4.40;;
32186;SDS011;18686;53.084;8.872;2022-10-16T01:57:46;12.48;;;4.75;;
32186;SDS011;18686;53.084;8.872;2022-10-16T02:00:17;9.52;;;4.45;;
32186;SDS011;18686;53.084;8.872;2022-10-16T02:02:49;10.00;;;4.25;;
32186;SDS011;18686;53.084;8.872;2022-10-16T02:05:20;8.57;;;4.47;;
32186;SDS011;18686;53.084;8.872;2022-10-16T02:07:52;13.30;;;5.03;;
32186;SDS011;18686;53.084;8.872;2022-10-16T02:10:21;13.98;;;4.85;;
32186;SDS011;18686;53.084;8.872;2022-10-16T02:12:53;14.40;;;5.35;;
32186;SDS011;18686;53.084;8.872;2022-10-16T02:15:25;12.43;;;4.82;;
32186;SDS011;18686;53.084;8.872;2022-10-16T02:17:54;17.45;;;5.15;;
32186;SDS011;18686;53.084;8.872;2022-10-16T02:20:23;13.38;;;5.03;;
32186;SDS011;18686;53.084;8.872;2022-10-16T02:22:54;14.07;;;5.15;;
32186;SDS011;18686;53.084;8.872;2022-10-16T02:25:25;10.43;;;4.82;;
32186;SDS011;18686;53.084;8.872;2022-10-16T02:28:00;11.82;;;4.95;;
32186;SDS011;18686;53.084;8.872;2022-10-16T02:30:32;12.93;;;5.63;;
32186;SDS011;18686;53.084;8.872;2022-10-16T02:33:04;13.07;;;5.85;;
32186;SDS011;18686;53.084;8.872;2022-10-16T02:35:36;12.50;;;5.70;;
32186;SDS011;18686;53.084;8.872;2022-10-16T02:38:05;12.88;;;5.72;;
32186;SDS011;18686;53.084;8.872;2022-10-16T02:40:36;17.10;;;5.80;;
32186;SDS011;18686;53.084;8.872;2022-10-16T02:43:06;16.13;;;7.88;;
32186;SDS011;18686;53.084;8.872;2022-10-16T02:45:35;11.20;;;5.45;;
32186;SDS011;18686;53.084;8.872;2022-10-16T02:48:03;15.32;;;6.50;;
32186;SDS011;18686;53.084;8.872;2022-10-16T02:50:32;13.38;;;5.55;;
32186;SDS011;18686;53.084;8.872;2022-10-16T02:53:00;15.57;;;6.00;;
32186;SDS011;18686;53.084;8.872;2022-10-16T02:55:29;15.90;;;6.00;;
32186;SDS011;18686;53.084;8.872;2022-10-16T02:57:57;15.38;;;6.15;;
32186;SDS011;18686;53.084;8.872;2022-10-16T03:00:26;14.68;;;5.88;;
32186;SDS011;18686;53.084;8.872;2022-10-16T03:02:55;14.60;;;6.40;;
32186;SDS011;18686;53.084;8.872;2022-10-16T03:05:23;14.07;;;6.20;;
32186;SDS011;18686;53.084;8.872;2022-10-16T03:07:51;17.23;;;6.28;;
32186;SDS011;18686;53.084;8.872;2022-10-16T03:10:19;15.80;;;5.85;;
32186;SDS011;18686;53.084;8.872;2022-10-16T03:12:47;13.52;;;6.03;;
32186;SDS011;18686;53.084;8.872;2022-10-16T03:15:15;14.90;;;5.88;;
32186;SDS011;18686;53.084;8.872;2022-10-16T03:17:45;15.52;;;6.10;;
32186;SDS011;18686;53.084;8.872;2022-10-16T03:20:13;15.73;;;5.88;;
32186;SDS011;18686;53.084;8.872;2022-10-16T03:22:41;13.98;;;5.95;;
32186;SDS011;18686;53.084;8.872;2022-10-16T03:25:09;13.85;;;6.50;;
32186;SDS011;18686;53.084;8.872;2022-10-16T03:27:38;16.13;;;6.40;;
32186;SDS011;18686;53.084;8.872;2022-10-16T03:30:06;19.23;;;7.20;;
32186;SDS011;18686;53.084;8.872;2022-10-16T03:32:35;13.18;;;7.03;;
32186;SDS011;18686;53.084;8.872;2022-10-16T03:35:05;13.95;;;7.50;;
32186;SDS011;18686;53.084;8.872;2022-10-16T03:37:34;18.35;;;7.53;;
32186;SDS011;18686;53.084;8.872;2022-10-16T03:40:02;15.93;;;8.00;;
32186;SDS011;18686;53.084;8.872;2022-10-16T03:42:31;21.45;;;8.32;;
32186;SDS011;18686;53.084;8.872;2022-10-16T03:44:59;21.33;;;8.63;;
32186;SDS011;18686;53.084;8.872;2022-10-16T03:47:27;17.52;;;8.80;;
32186;SDS011;18686;53.084;8.872;2022-10-16T03:49:55;21.50;;;9.70;;
32186;SDS011;18686;53.084;8.872;2022-10-16T03:52:25;21.45;;;9.23;;
32186;SDS011;18686;53.084;8.872;2022-10-16T03:54:53;20.88;;;9.40;;
32186;SDS011;18686;53.084;8.872;2022-10-16T03:57:22;24.60;;;11.48;;
32186;SDS011;18686;53.084;8.872;2022-10-16T03:59:50;23.85;;;11.38;;
32186;SDS011;18686;53.084;8.872;2022-10-16T04:02:18;33.75;;;12.07;;
32186;SDS011;18686;53.084;8.872;2022-10-16T04:04:47;27.10;;;11.43;;
32186;SDS011;18686;53.084;8.872;2022-10-16T04:07:15;30.95;;;12.32;;
32186;SDS011;18686;53.084;8.872;2022-10-16T04:09:44;32.25;;;13.70;;
32186;SDS011;18686;53.084;8.872;2022-10-16T04:12:12;30.70;;;13.45;;
32186;SDS011;18686;53.084;8.872;2022-10-16T04:14:40;31.27;;;14.82;;
32186;SDS011;18686;53.084;8.872;2022-10-16T04:17:08;31.60;;;15.48;;
32186;SDS011;18686;53.084;8.872;2022-10-16T04:19:37;34.00;;;15.50;;
32186;SDS011;18686;53.084;8.872;2022-10-16T04:22:05;39.15;;;15.57;;
32186;SDS011;18686;53.084;8.872;2022-10-16T04:24:33;37.28;;;16.35;;
32186;SDS011;18686;53.084;8.872;2022-10-16T04:27:02;33.63;;;15.70;;
32186;SDS011;18686;53.084;8.872;2022-10-16T04:29:30;36.35;;;16.23;;
32186;SDS011;18686;53.084;8.872;2022-10-16T04:31:58;32.70;;;16.75;;
32186;SDS011;18686;53.084;8.872;2022-10-16T04:34:27;39.03;;;16.95;;
32186;SDS011;18686;53.084;8.872;2022-10-16T04:36:55;41.33;;;17.52;;
32186;SDS011;18686;53.084;8.872;2022-10-16T04:39:23;45.70;;;18.13;;
32186;SDS011;18686;53.084;8.872;2022-10-16T04:41:51;38.25;;;18.02;;
32186;SDS011;18686;53.084;8.872;2022-10-16T04:44:20;47.22;;;18.42;;
32186;SDS011;18686;53.084;8.872;2022-10-16T04:46:49;39.42;;;18.60;;
32186;SDS011;18686;53.084;8.872;2022-10-16T04:49:18;47.40;;;18.98;;
32186;SDS011;18686;53.084;8.872;2022-10-16T04:51:46;47.30;;;20.20;;
32186;SDS011;18686;53.084;8.872;2022-10-16T04:54:14;49.80;;;19.02;;
32186;SDS011;18686;53.084;8.872;2022-10-16T04:56:42;42.97;;;19.95;;
32186;SDS011;18686;53.084;8.872;2022-10-16T04:59:13;45.28;;;20.63;;
32186;SDS011;18686;53.084;8.872;2022-10-16T05:01:43;39.97;;;19.17;;
32186;SDS011;18686;53.084;8.872;2022-10-16T05:04:12;48.00;;;21.38;;
32186;SDS011;18686;53.084;8.872;2022-10-16T05:06:41;55.47;;;22.23;;
32186;SDS011;18686;53.084;8.872;2022-10-16T05:09:10;48.53;;;20.42;;
32186;SDS011;18686;53.084;8.872;2022-10-16T05:11:38;48.10;;;21.25;;
32186;SDS011;18686;53.084;8.872;2022-10-16T05:14:06;53.63;;;20.73;;
32186;SDS011;18686;53.084;8.872;2022-10-16T05:16:34;48.30;;;20.90;;
32186;SDS011;18686;53.084;8.872;2022-10-16T05:19:03;59.10;;;23.40;;
32186;SDS011;18686;53.084;8.872;2022-10-16T05:21:51;55.38;;;23.63;;
32186;SDS011;18686;53.084;8.872;2022-10-16T05:24:19;50.70;;;23.00;;
32186;SDS011;18686;53.084;8.872;2022-10-16T05:26:48;59.20;;;25.40;;
32186;SDS011;18686;53.084;8.872;2022-10-16T05:29:17;55.35;;;24.25;;
32186;SDS011;18686;53.084;8.872;2022-10-16T05:31:45;67.93;;;26.27;;
32186;SDS011;18686;53.084;8.872;2022-10-16T05:34:14;64.70;;;26.15;;
32186;SDS011;18686;53.084;8.872;2022-10-16T05:36:42;58.33;;;25.23;;
32186;SDS011;18686;53.084;8.872;2022-10-16T05:39:11;60.45;;;25.17;;
32186;SDS011;18686;53.084;8.872;2022-10-16T05:41:41;63.25;;;26.10;;
32186;SDS011;18686;53.084;8.872;2022-10-16T05:44:09;59.65;;;25.65;;
32186;SDS011;18686;53.084;8.872;2022-10-16T05:46:37;54.28;;;24.17;;
32186;SDS011;18686;53.084;8.872;2022-10-16T05:49:05;54.15;;;23.20;;
32186;SDS011;18686;53.084;8.872;2022-10-16T05:51:34;54.13;;;24.48;;
32186;SDS011;18686;53.084;8.872;2022-10-16T05:54:03;49.85;;;23.25;;
32186;SDS011;18686;53.084;8.872;2022-10-16T05:56:31;40.75;;;20.88;;
32186;SDS011;18686;53.084;8.872;2022-10-16T05:58:59;53.53;;;22.27;;
32186;SDS011;18686;53.084;8.872;2022-10-16T06:01:27;50.38;;;22.08;;
32186;SDS011;18686;53.084;8.872;2022-10-16T06:03:55;50.53;;;21.92;;
32186;SDS011;18686;53.084;8.872;2022-10-16T06:06:24;42.00;;;21.67;;
32186;SDS011;18686;53.084;8.872;2022-10-16T06:08:55;39.13;;;20.33;;
32186;SDS011;18686;53.084;8.872;2022-10-16T06:11:26;39.85;;;20.13;;
32186;SDS011;18686;53.084;8.872;2022-10-16T06:13:57;46.42;;;19.95;;
32186;SDS011;18686;53.084;8.872;2022-10-16T06:16:28;44.28;;;19.95;;
32186;SDS011;18686;53.084;8.872;2022-10-16T06:18:56;40.78;;;19.08;;
32186;SDS011;18686;53.084;8.872;2022-10-16T06:21:26;41.88;;;18.70;;
32186;SDS011;18686;53.084;8.872;2022-10-16T06:23:57;39.47;;;18.10;;
32186;SDS011;18686;53.084;8.872;2022-10-16T06:26:26;33.63;;;16.25;;
32186;SDS011;18686;53.084;8.872;2022-10-16T06:28:56;35.50;;;16.65;;
32186;SDS011;18686;53.084;8.872;2022-10-16T06:31:26;27.90;;;16.13;;
32186;SDS011;18686;53.084;8.872;2022-10-16T06:33:57;30.92;;;16.60;;
32186;SDS011;18686;53.084;8.872;2022-10-16T06:36:25;31.15;;;16.90;;
32186;SDS011;18686;53.084;8.872;2022-10-16T06:38:54;30.55;;;15.70;;
32186;SDS011;18686;53.084;8.872;2022-10-16T06:41:23;28.20;;;15.10;;
32186;SDS011;18686;53.084;8.872;2022-10-16T06:43:51;34.15;;;14.50;;
32186;SDS011;18686;53.084;8.872;2022-10-16T06:46:20;24.98;;;14.63;;
32186;SDS011;18686;53.084;8.872;2022-10-16T06:48:50;19.90;;;13.27;;
32186;SDS011;18686;53.084;8.872;2022-10-16T06:51:19;20.08;;;11.38;;
32186;SDS011;18686;53.084;8.872;2022-10-16T06:53:48;21.63;;;12.43;;
32186;SDS011;18686;53.084;8.872;2022-10-16T06:56:35;20.85;;;11.15;;
32186;SDS011;18686;53.084;8.872;2022-10-16T06:59:03;20.50;;;11.55;;
32186;SDS011;18686;53.084;8.872;2022-10-16T07:01:32;13.68;;;10.15;;
32186;SDS011;18686;53.084;8.872;2022-10-16T07:04:00;15.48;;;9.93;;
32186;SDS011;18686;53.084;8.872;2022-10-16T07:06:31;12.40;;;9.40;;
32186;SDS011;18686;53.084;8.872;2022-10-16T07:09:01;12.15;;;8.68;;
32186;SDS011;18686;53.084;8.872;2022-10-16T07:11:31;12.88;;;8.82;;
32186;SDS011;18686;53.084;8.872;2022-10-16T07:14:01;12.55;;;8.43;;
32186;SDS011;18686;53.084;8.872;2022-10-16T07:16:30;16.85;;;9.45;;
32186;SDS011;18686;53.084;8.872;2022-10-16T07:19:00;14.73;;;8.18;;
32186;SDS011;18686;53.084;8.872;2022-10-16T07:21:30;13.55;;;8.15;;
32186;SDS011;18686;53.084;8.872;2022-10-16T07:24:02;10.60;;;7.05;;
32186;SDS011;18686;53.084;8.872;2022-10-16T07:26:32;13.85;;;7.78;;
32186;SDS011;18686;53.084;8.872;2022-10-16T07:29:03;13.45;;;7.70;;
32186;SDS011;18686;53.084;8.872;2022-10-16T07:31:31;9.90;;;7.10;;
32186;SDS011;18686;53.084;8.872;2022-10-16T07:33:59;8.82;;;6.05;;
32186;SDS011;18686;53.084;8.872;2022-10-16T07:36:28;26.08;;;8.70;;
32186;SDS011;18686;53.084;8.872;2022-10-16T07:38:56;43.28;;;10.80;;
32186;SDS011;18686;53.084;8.872;2022-10-16T07:41:25;33.17;;;9.88;;
32186;SDS011;18686;53.084;8.872;2022-10-16T07:43:54;11.68;;;5.43;;
32186;SDS011;18686;53.084;8.872;2022-10-16T07:46:25;10.23;;;5.32;;
32186;SDS011;18686;53.084;8.872;2022-10-16T07:48:53;8.65;;;4.57;;
32186;SDS011;18686;53.084;8.872;2022-10-16T07:51:22;7.40;;;4.07;;
32186;SDS011;18686;53.084;8.872;2022-10-16T07:53:51;5.18;;;4.30;;
32186;SDS011;18686;53.084;8.872;2022-10-16T07:56:20;5.45;;;3.80;;
32186;SDS011;18686;53.084;8.872;2022-10-16T07:58:49;5.93;;;4.00;;
32186;SDS011;18686;53.084;8.872;2022-10-16T08:01:18;8.60;;;4.45;;
32186;SDS011;18686;53.084;8.872;2022-10-16T08:03:48;5.07;;;3.78;;
32186;SDS011;18686;53.084;8.872;2022-10-16T08:06:17;5.05;;;3.35;;
32186;SDS011;18686;53.084;8.872;2022-10-16T08:08:53;6.15;;;3.45;;
32186;SDS011;18686;53.084;8.872;2022-10-16T08:11:21;4.35;;;3.13;;
32186;SDS011;18686;53.084;8.872;2022-10-16T08:13:49;5.78;;;3.25;;
32186;SDS011;18686;53.084;8.872;2022-10-16T08:16:17;5.35;;;2.78;;
32186;SDS011;18686;53.084;8.872;2022-10-16T08:18:46;5.95;;;2.40;;
32186;SDS011;18686;53.084;8.872;2022-10-16T08:21:18;4.50;;;2.50;;
32186;SDS011;18686;53.084;8.872;2022-10-16T08:23:49;4.38;;;2.20;;
32186;SDS011;18686;53.084;8.872;2022-10-16T08:26:23;2.65;;;2.17;;
32186;SDS011;18686;53.084;8.872;2022-10-16T08:28:52;2.65;;;1.92;;
32186;SDS011;18686;53.084;8.872;2022-10-16T08:31:20;5.97;;;2.08;;
32186;SDS011;18686;53.084;8.872;2022-10-16T08:33:49;5.40;;;2.20;;
32186;SDS011;18686;53.084;8.872;2022-10-16T08:36:19;3.17;;;1.67;;
32186;SDS011;18686;53.084;8.872;2022-10-16T08:38:47;3.67;;;1.80;;
32186;SDS011;18686;53.084;8.872;2022-10-16T08:41:19;4.20;;;2.00;;
32186;SDS011;18686;53.084;8.872;2022-10-16T08:46:51;6.88;;;1.77;;
32186;SDS011;18686;53.084;8.872;2022-10-16T08:49:29;2.13;;;1.48;;
32186;SDS011;18686;53.084;8.872;2022-10-16T08:51:58;5.10;;;2.40;;
32186;SDS011;18686;53.084;8.872;2022-10-16T08:54:28;3.83;;;1.63;;
32186;SDS011;18686;53.084;8.872;2022-10-16T08:57:01;2.90;;;1.50;;
32186;SDS011;18686;53.084;8.872;2022-10-16T08:59:36;4.10;;;1.95;;
32186;SDS011;18686;53.084;8.872;2022-10-16T09:02:11;3.35;;;1.63;;
32186;SDS011;18686;53.084;8.872;2022-10-16T09:04:55;4.55;;;1.48;;
32186;SDS011;18686;53.084;8.872;2022-10-16T09:07:46;4.50;;;1.50;;
32186;SDS011;18686;53.084;8.872;2022-10-16T09:10:26;4.18;;;1.50;;
32186;SDS011;18686;53.084;8.872;2022-10-16T09:13:09;3.35;;;1.33;;
32186;SDS011;18686;53.084;8.872;2022-10-16T09:15:46;3.83;;;1.30;;
32186;SDS011;18686;53.084;8.872;2022-10-16T09:18:21;2.55;;;1.13;;
32186;SDS011;18686;53.084;8.872;2022-10-16T09:21:01;5.38;;;1.27;;
32186;SDS011;18686;53.084;8.872;2022-10-16T09:23:34;3.33;;;1.10;;
32186;SDS011;18686;53.084;8.872;2022-10-16T09:26:04;3.33;;;1.20;;
32186;SDS011;18686;53.084;8.872;2022-10-16T09:28:37;3.65;;;1.00;;
32186;SDS011;18686;53.084;8.872;2022-10-16T09:31:05;2.85;;;1.27;;
32186;SDS011;18686;53.084;8.872;2022-10-16T09:33:38;2.50;;;1.02;;
32186;SDS011;18686;53.084;8.872;2022-10-16T09:36:09;1.88;;;1.00;;
32186;SDS011;18686;53.084;8.872;2022-10-16T09:38:38;5.53;;;1.20;;
32186;SDS011;18686;53.084;8.872;2022-10-16T09:41:13;3.35;;;1.05;;
32186;SDS011;18686;53.084;8.872;2022-10-16T09:43:46;3.72;;;1.52;;
32186;SDS011;18686;53.084;8.872;2022-10-16T09:46:25;5.30;;;1.50;;
32186;SDS011;18686;53.084;8.872;2022-10-16T09:48:55;4.47;;;1.17;;
32186;SDS011;18686;53.084;8.872;2022-10-16T09:51:26;2.90;;;1.15;;
32186;SDS011;18686;53.084;8.872;2022-10-16T09:53:57;1.52;;;0.75;;
32186;SDS011;18686;53.084;8.872;2022-10-16T09:56:27;1.80;;;0.77;;
32186;SDS011;18686;53.084;8.872;2022-10-16T09:58:59;1.85;;;0.60;;
32186;SDS011;18686;53.084;8.872;2022-10-16T10:01:31;3.55;;;1.00;;
32186;SDS011;18686;53.084;8.872;2022-10-16T10:04:05;3.10;;;1.00;;
32186;SDS011;18686;53.084;8.872;2022-10-16T10:06:35;2.28;;;0.90;;
32186;SDS011;18686;53.084;8.872;2022-10-16T10:09:15;3.10;;;1.00;;
32186;SDS011;18686;53.084;8.872;2022-10-16T10:11:50;1.75;;;0.82;;
32186;SDS011;18686;53.084;8.872;2022-10-16T10:14:21;4.93;;;1.08;;
32186;SDS011;18686;53.084;8.872;2022-10-16T10:17:09;2.90;;;0.90;;
32186;SDS011;18686;53.084;8.872;2022-10-16T10:19:43;5.63;;;1.00;;
32186;SDS011;18686;53.084;8.872;2022-10-16T10:22:27;4.18;;;0.70;;
32186;SDS011;18686;53.084;8.872;2022-10-16T10:25:13;2.25;;;0.80;;
32186;SDS011;18686;53.084;8.872;2022-10-16T10:27:49;3.00;;;0.90;;
32186;SDS011;18686;53.084;8.872;2022-10-16T10:30:29;3.83;;;1.00;;
32186;SDS011;18686;53.084;8.872;2022-10-16T10:33:10;3.13;;;0.90;;
32186;SDS011;18686;53.084;8.872;2022-10-16T10:35:48;2.03;;;0.95;;
32186;SDS011;18686;53.084;8.872;2022-10-16T10:38:32;5.75;;;0.82;;
32186;SDS011;18686;53.084;8.872;2022-10-16T10:41:14;2.65;;;0.70;;
32186;SDS011;18686;53.084;8.872;2022-10-16T10:43:59;3.90;;;1.00;;
32186;SDS011;18686;53.084;8.872;2022-10-16T10:46:35;3.00;;;0.80;;
32186;SDS011;18686;53.084;8.872;2022-10-16T10:49:15;2.45;;;0.70;;
32186;SDS011;18686;53.084;8.872;2022-10-16T10:51:53;4.55;;;0.90;;
32186;SDS011;18686;53.084;8.872;2022-10-16T10:54:31;3.08;;;0.75;;
32186;SDS011;18686;53.084;8.872;2022-10-16T10:57:08;2.58;;;0.85;;
32186;SDS011;18686;53.084;8.872;2022-10-16T10:59:51;2.25;;;0.88;;
32186;SDS011;18686;53.084;8.872;2022-10-16T11:02:36;5.07;;;1.02;;
32186;SDS011;18686;53.084;8.872;2022-10-16T11:07:57;4.15;;;1.08;;
32186;SDS011;18686;53.084;8.872;2022-10-16T11:10:30;3.40;;;0.90;;
32186;SDS011;18686;53.084;8.872;2022-10-16T11:13:06;4.45;;;0.98;;
32186;SDS011;18686;53.084;8.872;2022-10-16T11:15:42;2.38;;;0.77;;
32186;SDS011;18686;53.084;8.872;2022-10-16T11:18:20;3.10;;;0.70;;
32186;SDS011;18686;53.084;8.872;2022-10-16T11:20:52;3.30;;;1.05;;
32186;SDS011;18686;53.084;8.872;2022-10-16T11:23:23;3.88;;;0.90;;
32186;SDS011;18686;53.084;8.872;2022-10-16T11:25:59;5.20;;;0.80;;
32186;SDS011;18686;53.084;8.872;2022-10-16T11:28:33;1.63;;;0.70;;
32186;SDS011;18686;53.084;8.872;2022-10-16T11:31:08;2.55;;;0.90;;
32186;SDS011;18686;53.084;8.872;2022-10-16T11:33:42;3.33;;;1.17;;
32186;SDS011;18686;53.084;8.872;2022-10-16T11:36:15;3.60;;;0.95;;
32186;SDS011;18686;53.084;8.872;2022-10-16T11:38:48;2.53;;;0.98;;
32186;SDS011;18686;53.084;8.872;2022-10-16T11:41:24;3.22;;;1.33;;
32186;SDS011;18686;53.084;8.872;2022-10-16T11:44:05;3.95;;;0.95;;
32186;SDS011;18686;53.084;8.872;2022-10-16T11:46:43;3.95;;;0.82;;
32186;SDS011;18686;53.084;8.872;2022-10-16T11:49:34;2.97;;;1.13;;
32186;SDS011;18686;53.084;8.872;2022-10-16T11:52:06;4.05;;;1.27;;
32186;SDS011;18686;53.084;8.872;2022-10-16T11:54:45;2.88;;;1.05;;
32186;SDS011;18686;53.084;8.872;2022-10-16T11:57:20;2.40;;;0.85;;
32186;SDS011;18686;53.084;8.872;2022-10-16T11:59:52;3.75;;;1.23;;
32186;SDS011;18686;53.084;8.872;2022-10-16T12:02:35;3.38;;;0.88;;
32186;SDS011;18686;53.084;8.872;2022-10-16T12:05:22;3.50;;;1.08;;
32186;SDS011;18686;53.084;8.872;2022-10-16T12:07:59;3.00;;;0.90;;
32186;SDS011;18686;53.084;8.872;2022-10-16T12:10:34;3.00;;;1.00;;
32186;SDS011;18686;53.084;8.872;2022-10-16T12:13:25;3.15;;;1.13;;
32186;SDS011;18686;53.084;8.872;2022-10-16T12:16:03;4.38;;;1.15;;
32186;SDS011;18686;53.084;8.872;2022-10-16T12:18:33;4.05;;;1.25;;
32186;SDS011;18686;53.084;8.872;2022-10-16T12:21:01;2.10;;;1.00;;
32186;SDS011;18686;53.084;8.872;2022-10-16T12:23:33;2.78;;;0.80;;
32186;SDS011;18686;53.084;8.872;2022-10-16T12:26:05;4.05;;;1.23;;
32186;SDS011;18686;53.084;8.872;2022-10-16T12:28:35;7.40;;;1.02;;
32186;SDS011;18686;53.084;8.872;2022-10-16T12:31:06;3.22;;;0.90;;
32186;SDS011;18686;53.084;8.872;2022-10-16T12:33:36;2.78;;;0.82;;
32186;SDS011;18686;53.084;8.872;2022-10-16T12:36:09;2.95;;;1.00;;
32186;SDS011;18686;53.084;8.872;2022-10-16T12:38:47;4.53;;;1.05;;
32186;SDS011;18686;53.084;8.872;2022-10-16T12:41:24;2.55;;;0.90;;
32186;SDS011;18686;53.084;8.872;2022-10-16T12:43:54;4.93;;;1.38;;
32186;SDS011;18686;53.084;8.872;2022-10-16T12:46:24;2.40;;;0.90;;
32186;SDS011;18686;53.084;8.872;2022-10-16T12:51:57;2.78;;;0.90;;
32186;SDS011;18686;53.084;8.872;2022-10-16T12:54:27;3.35;;;0.75;;
32186;SDS011;18686;53.084;8.872;2022-10-16T12:57:06;3.50;;;1.08;;
32186;SDS011;18686;53.084;8.872;2022-10-16T12:59:51;3.17;;;0.98;;
32186;SDS011;18686;53.084;8.872;2022-10-16T13:02:45;3.58;;;0.98;;
32186;SDS011;18686;53.084;8.872;2022-10-16T13:05:33;5.47;;;1.00;;
32186;SDS011;18686;53.084;8.872;2022-10-16T13:08:15;3.22;;;0.90;;
32186;SDS011;18686;53.084;8.872;2022-10-16T13:10:55;4.72;;;1.23;;
32186;SDS011;18686;53.084;8.872;2022-10-16T13:13:34;4.10;;;1.13;;
32186;SDS011;18686;53.084;8.872;2022-10-16T13:16:28;7.00;;;1.27;;
32186;SDS011;18686;53.084;8.872;2022-10-16T13:19:08;3.22;;;0.93;;
32186;SDS011;18686;53.084;8.872;2022-10-16T13:21:47;5.95;;;1.13;;
32186;SDS011;18686;53.084;8.872;2022-10-16T13:24:23;3.42;;;1.08;;
32186;SDS011;18686;53.084;8.872;2022-10-16T13:29:36;4.40;;;1.20;;
32186;SDS011;18686;53.084;8.872;2022-10-16T13:32:09;5.28;;;0.90;;
32186;SDS011;18686;53.084;8.872;2022-10-16T13:34:43;7.25;;;1.45;;
32186;SDS011;18686;53.084;8.872;2022-10-16T13:37:20;5.27;;;1.40;;
32186;SDS011;18686;53.084;8.872;2022-10-16T13:39:49;5.28;;;1.33;;
32186;SDS011;18686;53.084;8.872;2022-10-16T13:42:20;5.22;;;1.00;;
32186;SDS011;18686;53.084;8.872;2022-10-16T13:44:55;5.47;;;1.15;;
32186;SDS011;18686;53.084;8.872;2022-10-16T13:47:25;3.10;;;1.00;;
32186;SDS011;18686;53.084;8.872;2022-10-16T13:49:59;5.07;;;1.00;;
32186;SDS011;18686;53.084;8.872;2022-10-16T13:52:27;3.53;;;0.98;;
32186;SDS011;18686;53.084;8.872;2022-10-16T13:54:55;4.10;;;1.35;;
32186;SDS011;18686;53.084;8.872;2022-10-16T13:57:27;5.82;;;1.27;;
32186;SDS011;18686;53.084;8.872;2022-10-16T13:59:56;4.43;;;1.73;;
32186;SDS011;18686;53.084;8.872;2022-10-16T14:02:26;3.50;;;1.52;;
32186;SDS011;18686;53.084;8.872;2022-10-16T14:04:58;6.53;;;1.58;;
32186;SDS011;18686;53.084;8.872;2022-10-16T14:07:26;7.25;;;1.90;;
32186;SDS011;18686;53.084;8.872;2022-10-16T14:09:58;4.20;;;1.17;;
32186;SDS011;18686;53.084;8.872;2022-10-16T14:12:31;4.68;;;1.02;;
32186;SDS011;18686;53.084;8.872;2022-10-16T14:15:00;5.00;;;1.10;;
32186;SDS011;18686;53.084;8.872;2022-10-16T14:17:31;5.78;;;1.30;;
32186;SDS011;18686;53.084;8.872;2022-10-16T14:20:03;4.30;;;1.20;;
32186;SDS011;18686;53.084;8.872;2022-10-16T14:22:33;6.75;;;1.20;;
32186;SDS011;18686;53.084;8.872;2022-10-16T14:25:13;3.58;;;1.10;;
32186;SDS011;18686;53.084;8.872;2022-10-16T14:27:56;5.32;;;1.23;;
32186;SDS011;18686;53.084;8.872;2022-10-16T14:30:27;5.03;;;0.93;;
32186;SDS011;18686;53.084;8.872;2022-10-16T14:32:58;4.10;;;1.00;;
32186;SDS011;18686;53.084;8.872;2022-10-16T14:35:29;5.35;;;1.10;;
32186;SDS011;18686;53.084;8.872;2022-10-16T14:37:59;4.45;;;1.23;;
32186;SDS011;18686;53.084;8.872;2022-10-16T14:40:28;3.83;;;1.45;;
32186;SDS011;18686;53.084;8.872;2022-10-16T14:42:58;5.18;;;1.00;;
32186;SDS011;18686;53.084;8.872;2022-10-16T14:45:27;4.22;;;1.00;;
32186;SDS011;18686;53.084;8.872;2022-10-16T14:48:00;3.33;;;1.02;;
32186;SDS011;18686;53.084;8.872;2022-10-16T14:50:31;4.13;;;1.30;;
32186;SDS011;18686;53.084;8.872;2022-10-16T14:52:59;7.90;;;1.67;;
32186;SDS011;18686;53.084;8.872;2022-10-16T14:55:36;7.00;;;1.35;;
32186;SDS011;18686;53.084;8.872;2022-10-16T14:58:04;5.45;;;1.13;;
32186;SDS011;18686;53.084;8.872;2022-10-16T15:00:32;2.60;;;1.20;;
32186;SDS011;18686;53.084;8.872;2022-10-16T15:03:02;5.82;;;1.20;;
32186;SDS011;18686;53.084;8.872;2022-10-16T15:05:30;5.22;;;1.10;;
32186;SDS011;18686;53.084;8.872;2022-10-16T15:07:58;7.22;;;1.08;;
32186;SDS011;18686;53.084;8.872;2022-10-16T15:10:27;5.25;;;1.13;;
32186;SDS011;18686;53.084;8.872;2022-10-16T15:12:58;3.40;;;1.13;;
32186;SDS011;18686;53.084;8.872;2022-10-16T15:15:36;5.60;;;1.10;;
32186;SDS011;18686;53.084;8.872;2022-10-16T15:18:06;3.20;;;1.00;;